Aviation Digital Data Service (ADDS)

Output produced by METARs form (0012 UTC 19 August 2019)
found at http://www.aviationweather.gov/metar/data/
 
Forecast for: UKOO (ODESSA/TSENTRALN, UA)
Text: TAF UKOO 182308Z 1900/1924 36003MPS 2100 BR SCT007 SCT020CB TX28/1912Z TN14/1902Z
Forecast period: 0000 to 0600 UTC 19 August 2019
Forecast type: FROM: standard forecast or significant change
Winds: from the N (360 degrees) at 7 MPH (6 knots; 3.1 m/s)
Visibility: 1.30 miles (2.09 km)
Ceiling: at least 12,000 feet AGL
Clouds: scattered clouds at 700 feet AGL
scattered clouds at 2000 feet AGL
Weather: BR  (mist)
Text: PROB40
Forecast period: 0000 to 0600 UTC 19 August 2019
Forecast type: TEMPORARY: The following changes expected for less than half the time period
Visibility: 0.19 miles (0.31 km)
Ceiling: indefinite ceiling with vertical visibility of 200 feet AGL
Clouds: obscured sky
Weather: FG  (fog)
Text: TEMPO 1900/1906 0300 FG VV002
Forecast period: 0600 UTC 19 August 2019 to 0000 UTC 20 August 2019
Forecast type: BECOMING: Conditions expected to become as follows by 0700 UTC 19 August 2019
Winds: from the SE (130 degrees) at 7 MPH (6 knots; 3.1 m/s)
gusting to 18 MPH (16 knots; 8.2 m/s)
Visibility: 4 miles (6 km)
Ceiling: at least 12,000 feet AGL
Clouds: scattered clouds at 700 feet AGL
scattered clouds at 2000 feet AGL
Weather: NSW  (no significant weather)